GLO46J SBRJ-SBSP
Flight info
| Callsign | GLO46J |
|---|---|
| Flight time | 0h 59m |
| Altitude | 34000 |
| Route | NAXOP UZ45 IBDAL |
| Aircraft | B737/M-SDE2E3FGHIRWXY/LB1 |
Departure
| Time | 2026-05-05 08:31 |
|---|---|
| Airport | Santos Dumont Airport (SBRJ) |
Arrival
| Time | 2026-05-05 09:30 |
|---|---|
| Airport | Congonhas–Deputado Freitas Nobre Airport (SBSP) |
| Time | Latitude | Longitude | Altitude | Speed | Heading |
|---|---|---|---|---|---|
| 2026-05-05 07:58 | -22.91356 | -43.16569 | 29 ft | 0 kts | 266° |
| 2026-05-05 08:24 | -22.91355 | -43.16561 | 29 ft | 2 kts | 260° |
| 2026-05-05 08:24 | -22.91352 | -43.16543 | 29 ft | 2 kts | 252° |
| 2026-05-05 08:25 | -22.91346 | -43.16527 | 29 ft | 2 kts | 237° |
| 2026-05-05 08:25 | -22.91335 | -43.16513 | 29 ft | 2 kts | 214° |
| 2026-05-05 08:25 | -22.91320 | -43.16506 | 29 ft | 2 kts | 191° |
| 2026-05-05 08:25 | -22.91306 | -43.16504 | 29 ft | 1 kts | 178° |
| 2026-05-05 08:26 | -22.91304 | -43.16504 | 29 ft | 0 kts | 177° |
| 2026-05-05 08:28 | -22.91312 | -43.16504 | 29 ft | 3 kts | 178° |
| 2026-05-05 08:28 | -22.91346 | -43.16503 | 29 ft | 8 kts | 176° |
| 2026-05-05 08:28 | -22.91434 | -43.16471 | 28 ft | 19 kts | 136° |
| 2026-05-05 08:29 | -22.91544 | -43.16360 | 25 ft | 23 kts | 137° |
| 2026-05-05 08:29 | -22.91630 | -43.16273 | 23 ft | 8 kts | 131° |
| 2026-05-05 08:29 | -22.91628 | -43.16247 | 23 ft | 2 kts | 34° |
| 2026-05-05 08:30 | -22.91596 | -43.16247 | 23 ft | 2 kts | 356° |
| 2026-05-05 08:30 | -22.91573 | -43.16249 | 23 ft | 9 kts | 356° |
| 2026-05-05 08:30 | -22.91184 | -43.16275 | 26 ft | 104 kts | 356° |
| 2026-05-05 08:30 | -22.90192 | -43.16339 | 144 ft | 172 kts | 356° |
| 2026-05-05 08:31 | -22.88936 | -43.16396 | 1078 ft | 180 kts | 8° |
| 2026-05-05 08:31 | -22.87854 | -43.15748 | 2237 ft | 190 kts | 50° |
| 2026-05-05 08:31 | -22.87369 | -43.14275 | 2703 ft | 231 kts | 87° |
| 2026-05-05 08:31 | -22.87374 | -43.12514 | 3692 ft | 238 kts | 88° |
| 2026-05-05 08:32 | -22.87487 | -43.10678 | 4723 ft | 245 kts | 99° |
| 2026-05-05 08:32 | -22.87793 | -43.08907 | 6070 ft | 236 kts | 102° |
| 2026-05-05 08:32 | -22.88081 | -43.07177 | 7157 ft | 237 kts | 102° |
| 2026-05-05 08:32 | -22.88585 | -43.05471 | 7711 ft | 238 kts | 127° |
| 2026-05-05 08:33 | -22.89854 | -43.04323 | 8129 ft | 251 kts | 158° |
| 2026-05-05 08:33 | -22.91643 | -43.03773 | 8157 ft | 277 kts | 171° |
| 2026-05-05 08:33 | -22.93562 | -43.03818 | 8141 ft | 279 kts | 198° |
| 2026-05-05 08:33 | -22.95280 | -43.04768 | 8149 ft | 277 kts | 216° |
| 2026-05-05 08:34 | -22.96780 | -43.06069 | 8154 ft | 276 kts | 220° |
| 2026-05-05 08:34 | -22.98244 | -43.07423 | 8148 ft | 276 kts | 220° |
| 2026-05-05 08:34 | -22.99706 | -43.08775 | 8140 ft | 275 kts | 220° |
| 2026-05-05 08:34 | -23.01154 | -43.10098 | 8138 ft | 275 kts | 220° |
| 2026-05-05 08:35 | -23.02624 | -43.11426 | 8144 ft | 274 kts | 220° |
| 2026-05-05 08:35 | -23.04096 | -43.12747 | 8130 ft | 274 kts | 220° |
| 2026-05-05 08:35 | -23.05569 | -43.14067 | 8132 ft | 274 kts | 219° |
| 2026-05-05 08:35 | -23.07044 | -43.15384 | 8149 ft | 274 kts | 219° |
| 2026-05-05 08:36 | -23.08550 | -43.16701 | 8620 ft | 281 kts | 219° |
| 2026-05-05 08:36 | -23.10070 | -43.18021 | 9803 ft | 280 kts | 219° |
| 2026-05-05 08:36 | -23.11607 | -43.19356 | 10741 ft | 288 kts | 219° |
| 2026-05-05 08:36 | -23.13233 | -43.20769 | 11049 ft | 318 kts | 219° |
| 2026-05-05 08:37 | -23.15042 | -43.22343 | 11319 ft | 345 kts | 219° |
| 2026-05-05 08:37 | -23.16942 | -43.23998 | 12018 ft | 354 kts | 219° |
| 2026-05-05 08:37 | -23.18879 | -43.25686 | 12902 ft | 358 kts | 219° |
| 2026-05-05 08:37 | -23.20833 | -43.27391 | 13827 ft | 361 kts | 219° |
| 2026-05-05 08:38 | -23.22804 | -43.29110 | 14607 ft | 366 kts | 219° |
| 2026-05-05 08:38 | -23.24777 | -43.30833 | 15335 ft | 371 kts | 219° |
| 2026-05-05 08:38 | -23.26825 | -43.32621 | 16093 ft | 375 kts | 219° |
| 2026-05-05 08:38 | -23.28847 | -43.34388 | 16821 ft | 379 kts | 219° |
| 2026-05-05 08:39 | -23.30916 | -43.36196 | 17524 ft | 384 kts | 219° |
| 2026-05-05 08:39 | -23.32859 | -43.38225 | 18190 ft | 389 kts | 232° |
| 2026-05-05 08:39 | -23.34165 | -43.40802 | 18916 ft | 391 kts | 249° |
| 2026-05-05 08:39 | -23.34943 | -43.43662 | 19486 ft | 397 kts | 254° |
| 2026-05-05 08:40 | -23.35608 | -43.46562 | 20033 ft | 401 kts | 255° |
| 2026-05-05 08:40 | -23.36257 | -43.49522 | 20640 ft | 404 kts | 255° |
| 2026-05-05 08:40 | -23.36914 | -43.52509 | 21269 ft | 406 kts | 255° |
| 2026-05-05 08:40 | -23.37586 | -43.55504 | 21867 ft | 409 kts | 255° |
| 2026-05-05 08:41 | -23.38278 | -43.58528 | 22460 ft | 412 kts | 255° |
| 2026-05-05 08:41 | -23.38979 | -43.61558 | 23032 ft | 415 kts | 255° |
| 2026-05-05 08:41 | -23.39690 | -43.64611 | 23580 ft | 418 kts | 254° |
| 2026-05-05 08:41 | -23.40408 | -43.67688 | 24046 ft | 421 kts | 254° |
| 2026-05-05 08:42 | -23.41131 | -43.70784 | 24499 ft | 423 kts | 254° |
| 2026-05-05 08:42 | -23.41858 | -43.73902 | 24949 ft | 426 kts | 254° |
| 2026-05-05 08:42 | -23.42587 | -43.77034 | 25404 ft | 428 kts | 254° |
| 2026-05-05 08:42 | -23.43320 | -43.80186 | 25835 ft | 431 kts | 254° |
| 2026-05-05 08:43 | -23.44060 | -43.83374 | 26252 ft | 434 kts | 254° |
| 2026-05-05 08:43 | -23.44802 | -43.86574 | 26684 ft | 436 kts | 254° |
| 2026-05-05 08:43 | -23.45546 | -43.89782 | 27102 ft | 439 kts | 253° |
| 2026-05-05 08:43 | -23.46293 | -43.93007 | 27479 ft | 441 kts | 253° |
| 2026-05-05 08:44 | -23.47045 | -43.96261 | 27865 ft | 444 kts | 253° |
| 2026-05-05 08:44 | -23.47800 | -43.99528 | 28223 ft | 446 kts | 253° |
| 2026-05-05 08:44 | -23.48552 | -44.02786 | 28584 ft | 448 kts | 253° |
| 2026-05-05 08:44 | -23.49312 | -44.06084 | 28974 ft | 450 kts | 253° |
| 2026-05-05 08:45 | -23.50077 | -44.09406 | 29429 ft | 449 kts | 253° |
| 2026-05-05 08:45 | -23.50838 | -44.12712 | 29972 ft | 448 kts | 253° |
| 2026-05-05 08:45 | -23.51591 | -44.15991 | 30509 ft | 445 kts | 253° |
| 2026-05-05 08:45 | -23.52340 | -44.19251 | 31075 ft | 441 kts | 253° |
| 2026-05-05 08:46 | -23.53079 | -44.22472 | 31652 ft | 437 kts | 253° |
| 2026-05-05 08:46 | -23.53199 | -44.22997 | 31745 ft | 436 kts | 253° |
| 2026-05-05 08:47 | -23.53415 | -44.23937 | 31927 ft | 435 kts | 253° |
| 2026-05-05 08:47 | -23.54145 | -44.27124 | 32546 ft | 430 kts | 253° |
| 2026-05-05 08:47 | -23.54866 | -44.30272 | 33085 ft | 427 kts | 253° |
| 2026-05-05 08:48 | -23.55585 | -44.33412 | 33557 ft | 425 kts | 253° |
| 2026-05-05 08:48 | -23.56291 | -44.36497 | 34010 ft | 424 kts | 253° |
| 2026-05-05 08:48 | -23.57005 | -44.39621 | 34101 ft | 427 kts | 253° |
| 2026-05-05 08:49 | -23.58430 | -44.45870 | 34115 ft | 423 kts | 253° |
| 2026-05-05 08:49 | -23.59843 | -44.52079 | 34126 ft | 421 kts | 254° |
| 2026-05-05 08:50 | -23.60156 | -44.53457 | 34126 ft | 421 kts | 254° |
| 2026-05-05 09:03 | -23.61301 | -44.58496 | 34133 ft | 420 kts | 254° |
| 2026-05-05 09:03 | -23.62705 | -44.64692 | 34123 ft | 420 kts | 254° |
| 2026-05-05 09:04 | -23.64097 | -44.70842 | 34132 ft | 420 kts | 254° |
| 2026-05-05 09:04 | -23.65498 | -44.77049 | 34129 ft | 421 kts | 254° |
| 2026-05-05 09:05 | -23.66896 | -44.83252 | 34129 ft | 421 kts | 254° |
| 2026-05-05 09:05 | -23.68296 | -44.89478 | 34128 ft | 422 kts | 254° |
| 2026-05-05 09:06 | -23.69693 | -44.95704 | 34133 ft | 422 kts | 254° |
| 2026-05-05 09:06 | -23.71089 | -45.01936 | 34131 ft | 423 kts | 254° |
| 2026-05-05 09:07 | -23.72475 | -45.08135 | 34131 ft | 423 kts | 254° |
| 2026-05-05 09:07 | -23.73179 | -45.11289 | 33417 ft | 432 kts | 254° |
| 2026-05-05 09:07 | -23.73886 | -45.14462 | 32650 ft | 430 kts | 254° |
| 2026-05-05 09:07 | -23.74592 | -45.17632 | 31786 ft | 430 kts | 254° |
| 2026-05-05 09:08 | -23.75300 | -45.20813 | 30875 ft | 432 kts | 254° |
| 2026-05-05 09:08 | -23.76009 | -45.24003 | 29880 ft | 435 kts | 254° |
| 2026-05-05 09:08 | -23.76716 | -45.27197 | 29172 ft | 429 kts | 254° |
| 2026-05-05 09:08 | -23.77410 | -45.30345 | 28448 ft | 424 kts | 254° |
| 2026-05-05 09:09 | -23.78093 | -45.33445 | 27745 ft | 418 kts | 254° |
| 2026-05-05 09:09 | -23.78772 | -45.36525 | 27066 ft | 414 kts | 254° |
| 2026-05-05 09:09 | -23.79441 | -45.39565 | 26383 ft | 410 kts | 254° |
| 2026-05-05 09:09 | -23.79949 | -45.42610 | 25898 ft | 405 kts | 261° |
| 2026-05-05 09:10 | -23.80154 | -45.45667 | 25528 ft | 405 kts | 264° |
| 2026-05-05 09:10 | -23.80282 | -45.48780 | 25132 ft | 415 kts | 264° |
| 2026-05-05 09:10 | -23.80396 | -45.51960 | 24729 ft | 418 kts | 264° |
| 2026-05-05 09:10 | -23.80515 | -45.55127 | 24305 ft | 415 kts | 264° |
| 2026-05-05 09:11 | -23.80643 | -45.58218 | 23924 ft | 411 kts | 264° |
| 2026-05-05 09:11 | -23.80786 | -45.61322 | 23487 ft | 408 kts | 263° |
| 2026-05-05 09:11 | -23.80936 | -45.64405 | 23068 ft | 406 kts | 263° |
| 2026-05-05 09:11 | -23.81089 | -45.67473 | 22652 ft | 403 kts | 263° |
| 2026-05-05 09:12 | -23.81244 | -45.70532 | 22254 ft | 402 kts | 264° |
| 2026-05-05 09:12 | -23.81398 | -45.73570 | 21866 ft | 400 kts | 264° |
| 2026-05-05 09:12 | -23.81552 | -45.76599 | 21483 ft | 399 kts | 264° |
| 2026-05-05 09:12 | -23.81704 | -45.79634 | 21109 ft | 399 kts | 264° |
| 2026-05-05 09:13 | -23.81855 | -45.82658 | 20726 ft | 398 kts | 264° |
| 2026-05-05 09:13 | -23.82005 | -45.85672 | 20344 ft | 397 kts | 264° |
| 2026-05-05 09:13 | -23.82154 | -45.88677 | 19968 ft | 395 kts | 264° |
| 2026-05-05 09:13 | -23.82302 | -45.91683 | 19590 ft | 394 kts | 265° |
| 2026-05-05 09:14 | -23.82448 | -45.94669 | 19204 ft | 393 kts | 265° |
| 2026-05-05 09:14 | -23.82591 | -45.97599 | 18826 ft | 391 kts | 265° |
| 2026-05-05 09:14 | -23.82735 | -46.00566 | 18441 ft | 389 kts | 265° |
| 2026-05-05 09:14 | -23.82878 | -46.03513 | 18026 ft | 387 kts | 265° |
| 2026-05-05 09:15 | -23.83021 | -46.06474 | 17626 ft | 384 kts | 265° |
| 2026-05-05 09:15 | -23.83160 | -46.09369 | 17259 ft | 381 kts | 265° |
| 2026-05-05 09:15 | -23.83296 | -46.12204 | 16896 ft | 378 kts | 265° |
| 2026-05-05 09:15 | -23.83433 | -46.15070 | 16532 ft | 376 kts | 265° |
| 2026-05-05 09:16 | -23.83568 | -46.17917 | 16166 ft | 374 kts | 265° |
| 2026-05-05 09:16 | -23.83703 | -46.20749 | 15811 ft | 372 kts | 265° |
| 2026-05-05 09:16 | -23.83836 | -46.23568 | 15459 ft | 371 kts | 265° |
| 2026-05-05 09:16 | -23.83970 | -46.26386 | 15100 ft | 371 kts | 265° |
| 2026-05-05 09:17 | -23.84103 | -46.29189 | 14750 ft | 370 kts | 265° |
| 2026-05-05 09:17 | -23.84236 | -46.32001 | 14389 ft | 370 kts | 265° |
| 2026-05-05 09:17 | -23.84368 | -46.34801 | 14028 ft | 369 kts | 265° |
| 2026-05-05 09:17 | -23.84500 | -46.37610 | 13645 ft | 368 kts | 266° |
| 2026-05-05 09:18 | -23.84626 | -46.40319 | 13285 ft | 364 kts | 266° |
| 2026-05-05 09:18 | -23.84753 | -46.43068 | 12920 ft | 358 kts | 266° |
| 2026-05-05 09:18 | -23.84876 | -46.45732 | 12577 ft | 353 kts | 266° |
| 2026-05-05 09:18 | -23.84999 | -46.48395 | 12242 ft | 350 kts | 266° |
| 2026-05-05 09:19 | -23.85121 | -46.51047 | 11911 ft | 347 kts | 266° |
| 2026-05-05 09:19 | -23.85242 | -46.53674 | 11581 ft | 345 kts | 266° |
| 2026-05-05 09:19 | -23.85361 | -46.56281 | 11257 ft | 343 kts | 266° |
| 2026-05-05 09:19 | -23.85473 | -46.58822 | 10923 ft | 324 kts | 267° |
| 2026-05-05 09:20 | -23.85168 | -46.61186 | 10600 ft | 309 kts | 289° |
| 2026-05-05 09:20 | -23.84138 | -46.63183 | 10336 ft | 296 kts | 306° |
| 2026-05-05 09:20 | -23.82667 | -46.64720 | 10057 ft | 290 kts | 322° |
| 2026-05-05 09:20 | -23.80987 | -46.65930 | 9775 ft | 289 kts | 326° |
| 2026-05-05 09:21 | -23.79275 | -46.67085 | 9496 ft | 290 kts | 326° |
| 2026-05-05 09:21 | -23.77574 | -46.68235 | 9306 ft | 292 kts | 326° |
| 2026-05-05 09:21 | -23.75844 | -46.69414 | 9282 ft | 293 kts | 326° |
| 2026-05-05 09:21 | -23.74119 | -46.70603 | 9261 ft | 292 kts | 326° |
| 2026-05-05 09:22 | -23.72410 | -46.71787 | 9257 ft | 291 kts | 325° |
| 2026-05-05 09:22 | -23.70687 | -46.72983 | 9001 ft | 297 kts | 325° |
| 2026-05-05 09:22 | -23.68942 | -46.74193 | 8579 ft | 297 kts | 326° |
| 2026-05-05 09:22 | -23.67212 | -46.75392 | 8122 ft | 289 kts | 326° |
| 2026-05-05 09:23 | -23.65570 | -46.76528 | 7991 ft | 267 kts | 326° |
| 2026-05-05 09:23 | -23.64070 | -46.77564 | 7841 ft | 244 kts | 325° |
| 2026-05-05 09:23 | -23.62698 | -46.78514 | 7705 ft | 223 kts | 325° |
| 2026-05-05 09:23 | -23.61447 | -46.79380 | 7564 ft | 203 kts | 325° |
| 2026-05-05 09:24 | -23.60308 | -46.80168 | 7437 ft | 184 kts | 325° |
| 2026-05-05 09:24 | -23.59268 | -46.80887 | 7161 ft | 172 kts | 325° |
| 2026-05-05 09:24 | -23.58327 | -46.81536 | 6970 ft | 152 kts | 324° |
| 2026-05-05 09:24 | -23.57399 | -46.82162 | 6380 ft | 161 kts | 334° |
| 2026-05-05 09:25 | -23.56322 | -46.82127 | 6166 ft | 160 kts | 28° |
| 2026-05-05 09:25 | -23.55586 | -46.81200 | 6037 ft | 166 kts | 56° |
| 2026-05-05 09:25 | -23.54956 | -46.80121 | 5813 ft | 168 kts | 55° |
| 2026-05-05 09:25 | -23.54341 | -46.79075 | 5622 ft | 164 kts | 55° |
| 2026-05-05 09:26 | -23.53736 | -46.78043 | 5432 ft | 161 kts | 55° |
| 2026-05-05 09:26 | -23.53130 | -46.77011 | 5267 ft | 161 kts | 55° |
| 2026-05-05 09:26 | -23.52527 | -46.75984 | 5101 ft | 160 kts | 54° |
| 2026-05-05 09:26 | -23.52029 | -46.74905 | 4905 ft | 162 kts | 77° |
| 2026-05-05 09:27 | -23.52097 | -46.73677 | 4778 ft | 168 kts | 111° |
| 2026-05-05 09:27 | -23.52857 | -46.72745 | 4676 ft | 165 kts | 141° |
| 2026-05-05 09:27 | -23.53751 | -46.71965 | 4457 ft | 163 kts | 141° |
| 2026-05-05 09:27 | -23.54636 | -46.71253 | 4278 ft | 153 kts | 145° |
| 2026-05-05 09:28 | -23.55514 | -46.70626 | 4080 ft | 149 kts | 146° |
| 2026-05-05 09:28 | -23.56096 | -46.70220 | 3997 ft | 151 kts | 146° |
| 2026-05-05 09:28 | -23.56984 | -46.69603 | 3823 ft | 151 kts | 146° |
| 2026-05-05 09:28 | -23.57872 | -46.68987 | 3603 ft | 150 kts | 146° |
| 2026-05-05 09:29 | -23.58738 | -46.68377 | 3445 ft | 147 kts | 146° |
| 2026-05-05 09:29 | -23.59632 | -46.67760 | 3253 ft | 156 kts | 147° |
| 2026-05-05 09:29 | -23.60532 | -46.67138 | 3067 ft | 152 kts | 145° |
| 2026-05-05 09:29 | -23.61392 | -46.66529 | 2817 ft | 144 kts | 145° |
| 2026-05-05 09:30 | -23.62222 | -46.65952 | 2625 ft | 138 kts | 145° |
| 2026-05-05 09:30 | -23.62954 | -46.65445 | 2630 ft | 99 kts | 147° |
| 2026-05-05 09:30 | -23.63312 | -46.65206 | 2643 ft | 25 kts | 164° |
| 2026-05-05 09:30 | -23.63400 | -46.65221 | 2644 ft | 0 kts | 226° |
| 2026-05-05 09:31 | -23.63403 | -46.65225 | 2644 ft | 1 kts | 227° |
| 2026-05-05 09:31 | -23.63407 | -46.65264 | 2642 ft | 10 kts | 281° |
| 2026-05-05 09:31 | -23.63369 | -46.65309 | 2640 ft | 6 kts | 300° |
| 2026-05-05 09:31 | -23.63340 | -46.65349 | 2638 ft | 12 kts | 348° |
| 2026-05-05 09:32 | -23.63199 | -46.65422 | 2635 ft | 29 kts | 328° |
| 2026-05-05 09:32 | -23.63021 | -46.65522 | 2631 ft | 28 kts | 342° |
| 2026-05-05 09:32 | -23.62861 | -46.65623 | 2627 ft | 25 kts | 319° |
| 2026-05-05 09:32 | -23.62751 | -46.65744 | 2624 ft | 22 kts | 327° |
| 2026-05-05 09:33 | -23.62680 | -46.65802 | 2623 ft | 5 kts | 288° |
| 2026-05-05 09:33 | -23.62688 | -46.65838 | 2623 ft | 0 kts | 232° |